This is the latest recevied weather packets stored in our database for station/object EA7AZH-5. If no packets are shown the sender has not sent any weather packets the latest 10 day(s).
| Time | Temp. | Humidity | Pressure | Rain* | Wind** | Luminosity | Snow |
|---|---|---|---|---|---|---|---|
| 1777557819 | 25° C | 39% | 1014.3 hPa | - | - | - | - |
| 1777556614 | 25° C | 44% | 1014.4 hPa | - | - | - | - |
| 1777554814 | 26.11° C | 42% | 1014.2 hPa | - | - | - | - |
| 1777553614 | 25.56° C | 41% | 1014.1 hPa | - | - | - | - |
| 1777543413 | 27.78° C | 35% | 1014.2 hPa | - | - | - | - |
| 1777541613 | 26.67° C | 38% | 1014.1 hPa | - | - | - | - |
| 1777536218 | 26.11° C | 45% | 1014.2 hPa | - | - | - | - |
| 1777535613 | 25.56° C | 47% | 1014.1 hPa | - | - | - | - |
| 1777533218 | 22.78° C | 51% | 1014.2 hPa | - | - | - | - |
| 1777521212 | 20.56° C | 58% | 1013.2 hPa | - | - | - | - |
| 1777517612 | 21.11° C | 58% | 1013 hPa | - | - | - | - |
| 1777516412 | 21.67° C | 58% | 1012.9 hPa | - | - | - | - |
| 1777515212 | 22.22° C | 56% | 1012.9 hPa | - | - | - | - |
| 1777514017 | 21.67° C | 56% | 1012.8 hPa | - | - | - | - |
| 1777512212 | 21.67° C | 57% | 1012.7 hPa | - | - | - | - |
| 1777505612 | 22.78° C | 54% | 1012.9 hPa | - | - | - | - |
| 1777502611 | 22.78° C | 54% | 1012.9 hPa | - | - | - | - |
| 1777496011 | 22.78° C | 55% | 1012.4 hPa | - | - | - | - |
| 1777495411 | 22.78° C | 54% | 1012.3 hPa | - | - | - | - |
| 1777494211 | 22.78° C | 54% | 1012 hPa | - | - | - | - |
| 1777492411 | 22.78° C | 54% | 1011.5 hPa | - | - | - | - |
| 1777491211 | 22.78° C | 54% | 1011.2 hPa | - | - | - | - |
| 1777488811 | 23.33° C | 53% | 1010.6 hPa | - | - | - | - |
| 1777488216 | 23.33° C | 53% | 1010.1 hPa | - | - | - | - |
| 1777483411 | 24.44° C | 51% | 1009.8 hPa | - | - | - | - |
* Rain since midnight (hover to see other rain measurements)
** Current wind speed in m/s (hover to see current wind gust speed)